createdAt,value
2022-12-27T00:00:15.721Z,7.19
2022-12-27T00:03:04.941Z,7.19
2022-12-27T00:05:32.570Z,7.18
2022-12-27T00:08:00.952Z,7.16
2022-12-27T00:10:28.724Z,7.18
2022-12-27T00:12:59.799Z,7.23
2022-12-27T00:15:28.030Z,7.28
2022-12-27T00:17:59.006Z,7.36
2022-12-27T00:20:26.722Z,7.44
2022-12-27T00:22:55.197Z,7.54
2022-12-27T00:25:24.331Z,7.58
2022-12-27T00:27:52.623Z,7.59
2022-12-27T00:30:21.104Z,7.57
2022-12-27T00:32:48.665Z,7.40
2022-12-27T00:35:16.378Z,7.31
2022-12-27T00:37:44.385Z,7.24
2022-12-27T00:40:13.900Z,7.22
2022-12-27T00:42:42.360Z,7.14
2022-12-27T00:45:12.883Z,7.14
2022-12-27T00:47:43.379Z,7.12
2022-12-27T00:50:13.035Z,7.21
2022-12-27T00:52:40.658Z,7.25
2022-12-27T00:55:09.712Z,7.27
2022-12-27T00:57:37.370Z,7.24
2022-12-27T01:00:10.377Z,7.17
2022-12-27T01:02:38.430Z,7.10
2022-12-27T01:05:07.862Z,7.07
2022-12-27T01:07:36.503Z,6.99
2022-12-27T01:10:06.543Z,6.91
2022-12-27T01:12:36.631Z,6.82
2022-12-27T01:15:06.087Z,6.77
2022-12-27T01:17:35.200Z,6.74
2022-12-27T01:20:05.794Z,6.70
2022-12-27T01:22:36.169Z,6.66
2022-12-27T01:25:05.741Z,6.68
2022-12-27T01:27:33.958Z,6.58
2022-12-27T01:30:04.057Z,6.51
2022-12-27T01:32:34.170Z,6.54
2022-12-27T01:35:02.302Z,6.55
2022-12-27T01:37:30.925Z,6.49
2022-12-27T01:39:58.703Z,6.37
2022-12-27T01:42:46.684Z,6.28
2022-12-27T01:45:22.214Z,6.11
2022-12-27T01:48:13.040Z,6.01
2022-12-27T01:51:04.670Z,6.00
2022-12-27T01:53:42.440Z,5.94
2022-12-27T01:56:26.544Z,5.91
2022-12-27T01:58:56.928Z,5.98
2022-12-27T02:01:28.818Z,5.81
2022-12-27T02:03:58.489Z,5.62
2022-12-27T02:06:29.299Z,5.60
2022-12-27T02:09:20.731Z,5.70
2022-12-27T02:11:55.150Z,5.86
2022-12-27T02:14:44.899Z,5.82
2022-12-27T02:17:33.588Z,5.73
2022-12-27T02:20:22.399Z,5.61
2022-12-27T02:23:27.398Z,5.33
2022-12-27T02:26:04.223Z,5.33
2022-12-27T02:29:02.352Z,5.40
2022-12-27T02:31:33.900Z,5.45
2022-12-27T02:34:08.568Z,5.57
2022-12-27T02:36:39.031Z,5.41
2022-12-27T02:39:06.834Z,5.36
2022-12-27T02:41:53.687Z,5.29
2022-12-27T02:44:40.618Z,5.36
2022-12-27T02:47:42.371Z,5.34
2022-12-27T02:50:32.910Z,5.27
2022-12-27T02:53:39.151Z,5.14
2022-12-27T02:56:56.700Z,4.97
2022-12-27T02:59:33.489Z,4.92
2022-12-27T03:02:41.791Z,4.97
2022-12-27T03:05:36.703Z,4.72
2022-12-27T03:08:16.822Z,4.82
2022-12-27T03:11:15.782Z,4.72
2022-12-27T03:14:19.984Z,4.48
2022-12-27T03:16:57.286Z,4.51
2022-12-27T03:19:52.401Z,4.55
2022-12-27T03:22:41.639Z,4.48
2022-12-27T03:25:28.628Z,4.52
2022-12-27T03:28:47.134Z,4.41
2022-12-27T03:31:50.048Z,4.28
2022-12-27T03:34:35.328Z,4.17
2022-12-27T03:37:32.650Z,4.11
2022-12-27T03:40:22.790Z,4.13
2022-12-27T03:43:12.605Z,4.07
2022-12-27T03:46:33.914Z,3.96
2022-12-27T03:49:07.324Z,3.86
2022-12-27T03:52:07.727Z,3.72
2022-12-27T03:54:43.164Z,3.55
2022-12-27T03:57:16.791Z,3.43
2022-12-27T03:59:45.162Z,3.37
2022-12-27T04:02:13.377Z,3.39
2022-12-27T04:04:41.298Z,3.35
2022-12-27T04:07:12.438Z,3.28
2022-12-27T04:09:58.822Z,3.17
2022-12-27T04:12:46.079Z,3.16
2022-12-27T04:15:33.006Z,3.16
2022-12-27T04:18:20.308Z,3.16
2022-12-27T04:21:07.415Z,3.24
2022-12-27T04:23:53.977Z,3.30
2022-12-27T04:26:40.432Z,3.33
2022-12-27T04:29:26.972Z,3.36
2022-12-27T04:32:13.022Z,3.35
2022-12-27T04:34:43.758Z,3.30
2022-12-27T04:37:19.475Z,3.44
2022-12-27T04:40:06.460Z,3.49
2022-12-27T04:42:54.651Z,3.50
2022-12-27T04:45:41.788Z,3.46
2022-12-27T04:48:33.761Z,3.38
2022-12-27T04:51:20.204Z,3.51
2022-12-27T04:54:06.345Z,3.58
2022-12-27T04:56:36.195Z,3.48
2022-12-27T04:59:22.627Z,3.38
2022-12-27T05:02:05.430Z,3.33
2022-12-27T05:04:36.595Z,3.33
2022-12-27T05:07:25.813Z,3.33
2022-12-27T05:10:12.588Z,3.32
2022-12-27T05:12:58.704Z,3.27
2022-12-27T05:15:28.017Z,3.40
2022-12-27T05:17:57.324Z,3.46
2022-12-27T05:20:25.801Z,3.45
2022-12-27T05:23:13.633Z,3.50
2022-12-27T05:25:44.565Z,3.35
2022-12-27T05:28:13.731Z,3.46
2022-12-27T05:30:43.586Z,3.45
2022-12-27T05:33:12.699Z,3.34
2022-12-27T05:35:40.621Z,3.28
2022-12-27T05:38:08.336Z,3.33
2022-12-27T05:40:36.602Z,3.34
2022-12-27T05:43:04.480Z,3.33
2022-12-27T05:45:34.031Z,3.23
2022-12-27T05:48:03.383Z,3.12
2022-12-27T05:50:32.737Z,2.99
2022-12-27T05:53:11.409Z,2.86
2022-12-27T05:55:39.358Z,2.80
2022-12-27T05:58:07.565Z,2.73
2022-12-27T06:00:35.715Z,2.64
2022-12-27T06:03:04.874Z,2.70
2022-12-27T06:05:32.546Z,2.76
2022-12-27T06:08:01.904Z,2.85
2022-12-27T06:10:29.709Z,2.95
2022-12-27T06:13:00.592Z,3.05
2022-12-27T06:15:28.326Z,3.10
2022-12-27T06:17:56.586Z,3.25
2022-12-27T06:20:24.404Z,3.51
2022-12-27T06:22:53.780Z,3.70
2022-12-27T06:25:21.381Z,3.74
2022-12-27T06:27:49.417Z,3.90
2022-12-27T06:30:17.067Z,4.12
2022-12-27T06:32:45.197Z,4.17
2022-12-27T06:35:13.958Z,4.22
2022-12-27T06:37:41.687Z,4.28
2022-12-27T06:40:10.953Z,4.25
2022-12-27T06:42:39.550Z,4.17
2022-12-27T06:45:09.785Z,3.98
2022-12-27T06:47:37.670Z,3.83
2022-12-27T06:50:05.734Z,3.83
2022-12-27T06:52:33.510Z,4.06
2022-12-27T06:55:01.080Z,4.13
2022-12-27T06:57:29.864Z,4.10
2022-12-27T06:59:59.558Z,4.12
2022-12-27T07:02:29.350Z,4.15
2022-12-27T07:04:56.991Z,4.22
2022-12-27T07:07:24.623Z,4.32
2022-12-27T07:09:52.282Z,4.21
2022-12-27T07:12:21.742Z,4.17
2022-12-27T07:14:50.224Z,4.15
2022-12-27T07:17:18.689Z,4.09
2022-12-27T07:19:47.910Z,3.97
2022-12-27T07:22:17.403Z,3.85
2022-12-27T07:24:45.068Z,3.76
2022-12-27T07:27:14.942Z,3.74
2022-12-27T07:29:45.913Z,3.68
2022-12-27T07:32:14.033Z,3.69
2022-12-27T07:34:43.476Z,3.74
2022-12-27T07:37:11.056Z,3.72
2022-12-27T07:39:40.482Z,3.77
2022-12-27T07:42:08.795Z,3.82
2022-12-27T07:44:38.573Z,3.88
2022-12-27T07:48:25.433Z,3.97
2022-12-27T07:50:55.675Z,4.05
2022-12-27T07:53:23.488Z,4.08
2022-12-27T07:55:52.135Z,4.05
2022-12-27T07:58:21.070Z,4.03
2022-12-27T08:00:50.990Z,4.07
2022-12-27T08:03:19.992Z,4.31
2022-12-27T08:05:52.130Z,4.52
2022-12-27T08:08:25.928Z,4.57
2022-12-27T08:10:53.757Z,4.44
2022-12-27T08:13:23.368Z,4.31
2022-12-27T08:15:53.000Z,4.17
2022-12-27T08:18:24.941Z,4.08
2022-12-27T08:20:52.771Z,4.05
2022-12-27T08:23:22.146Z,4.01
2022-12-27T08:25:49.688Z,3.98
2022-12-27T08:28:18.602Z,3.96
2022-12-27T08:30:46.985Z,3.91
2022-12-27T08:33:16.268Z,3.86
2022-12-27T08:35:54.054Z,3.84
2022-12-27T08:38:23.539Z,3.80
2022-12-27T08:40:52.161Z,3.71
2022-12-27T08:43:19.892Z,3.62
2022-12-27T08:45:49.319Z,3.61
2022-12-27T08:48:17.495Z,3.68
2022-12-27T08:50:47.252Z,3.71
2022-12-27T08:53:16.623Z,3.74
2022-12-27T08:55:45.913Z,3.77
2022-12-27T08:58:16.506Z,3.84
2022-12-27T09:00:44.912Z,3.88
2022-12-27T09:03:12.683Z,3.94
2022-12-27T09:05:42.083Z,3.96
2022-12-27T09:08:12.699Z,3.93
2022-12-27T09:10:40.302Z,3.93
2022-12-27T09:13:08.247Z,4.00
2022-12-27T09:15:38.213Z,4.12
2022-12-27T09:18:07.057Z,4.27
2022-12-27T09:20:35.653Z,4.36
2022-12-27T09:23:05.966Z,4.56
2022-12-27T09:25:33.839Z,5.23
2022-12-27T09:28:03.350Z,5.26
2022-12-27T09:30:31.840Z,5.02
2022-12-27T09:33:03.311Z,4.84
2022-12-27T09:35:38.362Z,4.76
2022-12-27T09:38:09.873Z,4.69
2022-12-27T09:40:38.091Z,4.62
2022-12-27T09:43:20.616Z,4.52
2022-12-27T09:45:55.202Z,4.46
2022-12-27T09:48:33.311Z,4.40
2022-12-27T09:51:19.349Z,4.37
2022-12-27T09:54:14.493Z,4.37
2022-12-27T09:57:17.809Z,4.42
2022-12-27T09:59:36.903Z,4.49
2022-12-27T10:02:28.796Z,4.51
2022-12-27T10:08:09.667Z,4.64
2022-12-27T10:11:09.323Z,4.70
2022-12-27T10:13:54.203Z,4.66
2022-12-27T10:16:41.450Z,4.57
2022-12-27T10:19:39.057Z,4.48
2022-12-27T10:22:35.161Z,4.48
2022-12-27T10:25:11.138Z,4.52
2022-12-27T10:27:40.157Z,4.58
2022-12-27T10:30:22.161Z,4.51
2022-12-27T10:32:50.557Z,4.42
2022-12-27T10:35:21.363Z,4.36
2022-12-27T10:37:50.573Z,4.31
2022-12-27T10:40:25.543Z,4.21
2022-12-27T10:43:04.197Z,4.08
2022-12-27T10:45:38.963Z,3.98
2022-12-27T10:48:41.494Z,3.93
2022-12-27T10:51:18.439Z,3.92
2022-12-27T10:53:46.022Z,3.92
2022-12-27T10:56:46.324Z,3.95
2022-12-27T10:59:26.237Z,3.89
2022-12-27T11:02:01.341Z,3.83
2022-12-27T11:04:32.720Z,3.81
2022-12-27T11:07:03.419Z,3.84
2022-12-27T11:09:36.479Z,3.87
2022-12-27T11:12:12.228Z,3.92
2022-12-27T11:14:58.010Z,3.95
2022-12-27T11:17:50.001Z,3.93
2022-12-27T11:20:23.414Z,3.92
2022-12-27T11:22:55.833Z,3.90
2022-12-27T11:25:27.179Z,3.86
2022-12-27T11:28:00.947Z,3.85
2022-12-27T11:30:38.950Z,3.83
2022-12-27T11:33:47.621Z,3.81
2022-12-27T11:36:37.269Z,3.79
2022-12-27T11:39:07.277Z,3.77
2022-12-27T11:41:42.867Z,3.75
2022-12-27T11:44:33.807Z,3.73
2022-12-27T11:47:22.105Z,3.72
2022-12-27T11:49:55.105Z,3.75
2022-12-27T11:52:35.333Z,3.76
2022-12-27T11:55:15.629Z,3.77
2022-12-27T11:57:52.624Z,3.80
2022-12-27T12:00:26.729Z,3.79
2022-12-27T12:03:23.774Z,3.76
2022-12-27T12:06:14.281Z,3.74
2022-12-27T12:08:53.983Z,3.68
2022-12-27T12:11:42.059Z,3.65
2022-12-27T12:14:18.114Z,3.62
2022-12-27T12:17:04.392Z,3.60
2022-12-27T12:20:10.572Z,3.64
2022-12-27T12:23:14.142Z,3.69
2022-12-27T12:26:11.363Z,3.68
2022-12-27T12:29:17.708Z,3.66
2022-12-27T12:32:14.849Z,3.62
2022-12-27T12:35:04.955Z,3.62
2022-12-27T12:37:51.446Z,3.63
2022-12-27T12:40:51.643Z,3.61
2022-12-27T12:43:40.416Z,3.59
2022-12-27T12:46:17.058Z,3.53
2022-12-27T12:49:16.957Z,3.47
2022-12-27T12:52:04.606Z,3.42
2022-12-27T12:54:43.380Z,3.36
2022-12-27T12:57:32.388Z,3.36
2022-12-27T13:00:28.189Z,3.35
2022-12-27T13:03:25.255Z,3.35
2022-12-27T13:06:09.856Z,3.32
2022-12-27T13:08:40.103Z,3.28
2022-12-27T13:11:46.254Z,3.24
2022-12-27T13:14:27.548Z,3.18
2022-12-27T13:16:58.915Z,3.14
2022-12-27T13:19:57.157Z,3.10
2022-12-27T13:22:45.695Z,3.09
2022-12-27T13:25:31.011Z,3.08
2022-12-27T13:28:17.964Z,3.08
2022-12-27T13:31:26.787Z,3.09
2022-12-27T13:34:40.026Z,3.12
2022-12-27T13:37:16.247Z,3.14
2022-12-27T13:40:07.218Z,3.13
2022-12-27T13:42:53.529Z,3.10
2022-12-27T13:46:04.047Z,3.11
2022-12-27T13:49:13.197Z,3.11
2022-12-27T13:51:48.113Z,3.08
2022-12-27T13:54:50.922Z,3.05
2022-12-27T13:57:25.304Z,3.04
2022-12-27T14:00:20.469Z,3.01
2022-12-27T14:03:38.880Z,2.98
2022-12-27T14:06:31.593Z,2.96
2022-12-27T14:09:02.780Z,2.97
2022-12-27T14:12:01.198Z,2.99
2022-12-27T14:14:30.513Z,3.02
2022-12-27T14:17:52.389Z,3.04
2022-12-27T14:20:58.148Z,3.10
2022-12-27T14:23:28.998Z,3.10
2022-12-27T14:26:10.184Z,3.09
2022-12-27T14:28:59.312Z,3.09
2022-12-27T14:32:08.669Z,3.11
2022-12-27T14:34:59.323Z,3.11
2022-12-27T14:38:05.117Z,3.12
2022-12-27T14:40:39.088Z,3.12
2022-12-27T14:43:26.759Z,3.13
2022-12-27T14:46:03.396Z,3.15
2022-12-27T14:49:00.589Z,3.15
2022-12-27T14:52:02.413Z,3.16
2022-12-27T14:55:11.537Z,3.15
2022-12-27T14:57:52.458Z,3.17
2022-12-27T15:00:25.801Z,3.16
2022-12-27T15:03:09.657Z,3.17
2022-12-27T15:05:41.551Z,3.17
2022-12-27T15:08:28.007Z,3.18
2022-12-27T15:11:15.536Z,3.20
2022-12-27T15:13:55.764Z,3.28
2022-12-27T15:16:43.480Z,3.26
2022-12-27T15:19:30.539Z,3.26
2022-12-27T15:22:37.005Z,3.31
2022-12-27T15:25:21.607Z,3.32
2022-12-27T15:28:17.921Z,3.32
2022-12-27T15:31:06.351Z,3.35
2022-12-27T15:33:49.370Z,3.38
2022-12-27T15:36:21.434Z,3.37
2022-12-27T15:38:55.276Z,3.37
2022-12-27T15:41:50.529Z,3.34
2022-12-27T15:44:25.350Z,3.33
2022-12-27T15:47:33.578Z,3.33
2022-12-27T15:50:28.907Z,3.32
2022-12-27T15:53:02.500Z,3.30
2022-12-27T15:55:46.197Z,3.28
2022-12-27T15:58:17.347Z,3.27
2022-12-27T16:01:06.139Z,3.26
2022-12-27T16:03:42.640Z,3.27
2022-12-27T16:06:34.779Z,3.25
2022-12-27T16:09:36.018Z,3.24
2022-12-27T16:12:12.943Z,3.24
2022-12-27T16:14:42.960Z,3.30
2022-12-27T16:17:34.239Z,3.31
2022-12-27T16:20:23.498Z,3.30
2022-12-27T16:22:55.730Z,3.28
2022-12-27T16:25:31.991Z,3.28
2022-12-27T16:28:06.370Z,3.29
2022-12-27T16:30:49.338Z,3.29
2022-12-27T16:33:26.596Z,3.29
2022-12-27T16:36:14.325Z,3.27
2022-12-27T16:38:45.579Z,3.25
2022-12-27T16:41:25.885Z,3.26
2022-12-27T16:44:00.220Z,3.26
2022-12-27T16:46:35.336Z,3.24
2022-12-27T16:49:25.851Z,3.23
2022-12-27T16:52:21.995Z,3.22
2022-12-27T16:55:27.455Z,3.19
2022-12-27T16:58:18.445Z,3.13
2022-12-27T17:00:49.070Z,3.12
2022-12-27T17:03:38.047Z,3.11
2022-12-27T17:06:33.689Z,3.09
2022-12-27T17:09:09.833Z,3.04
2022-12-27T17:11:51.624Z,3.00
2022-12-27T17:14:27.770Z,3.00
2022-12-27T17:17:00.716Z,2.98
2022-12-27T17:19:36.117Z,2.97
2022-12-27T17:22:07.374Z,2.97
2022-12-27T17:24:37.204Z,2.95
2022-12-27T17:27:36.579Z,2.93
2022-12-27T17:30:22.165Z,2.91
2022-12-27T17:32:55.876Z,2.90
2022-12-27T17:35:43.543Z,2.91
2022-12-27T17:38:44.604Z,2.91
2022-12-27T17:41:49.467Z,2.92
2022-12-27T17:44:38.919Z,2.92
2022-12-27T17:47:20.030Z,2.93
2022-12-27T17:49:49.536Z,2.96
2022-12-27T17:52:39.719Z,3.01
2022-12-27T17:55:39.227Z,3.03
2022-12-27T17:58:12.032Z,3.02
2022-12-27T18:00:55.057Z,3.03
2022-12-27T18:03:36.190Z,3.06
2022-12-27T18:06:05.391Z,3.07
2022-12-27T18:08:34.500Z,3.08
2022-12-27T18:11:06.108Z,3.09
2022-12-27T18:13:39.956Z,3.10
2022-12-27T18:16:38.434Z,3.10
2022-12-27T18:19:07.254Z,3.08
2022-12-27T18:21:36.624Z,3.06
2022-12-27T18:24:24.494Z,3.05
2022-12-27T18:27:19.337Z,3.04
2022-12-27T18:29:48.459Z,3.05
2022-12-27T18:32:19.124Z,3.04
2022-12-27T18:35:24.144Z,3.03
2022-12-27T18:37:56.464Z,3.00
2022-12-27T18:40:27.135Z,2.96
2022-12-27T18:42:57.708Z,2.95
2022-12-27T18:45:31.617Z,2.95
2022-12-27T18:48:09.998Z,2.95
2022-12-27T18:50:41.646Z,2.94
2022-12-27T18:53:33.402Z,2.93
2022-12-27T18:56:16.075Z,2.89
2022-12-27T18:59:03.558Z,2.88
2022-12-27T19:01:48.259Z,2.87
2022-12-27T19:04:18.380Z,2.82
2022-12-27T19:07:10.162Z,2.77
2022-12-27T19:09:49.867Z,2.72
2022-12-27T19:12:38.446Z,2.68
2022-12-27T19:15:31.386Z,2.62
2022-12-27T19:18:04.534Z,2.57
2022-12-27T19:20:42.546Z,2.56
2022-12-27T19:23:36.479Z,2.58
2022-12-27T19:26:09.872Z,2.60
2022-12-27T19:28:39.429Z,2.61
2022-12-27T19:31:21.976Z,2.62
2022-12-27T19:34:05.014Z,2.64
2022-12-27T19:36:39.273Z,2.62
2022-12-27T19:39:26.561Z,2.61
2022-12-27T19:42:00.767Z,2.59
2022-12-27T19:44:32.492Z,2.56
2022-12-27T19:47:03.811Z,2.55
2022-12-27T19:49:42.793Z,2.55
2022-12-27T19:52:18.488Z,2.53
2022-12-27T19:54:51.347Z,2.52
2022-12-27T19:57:19.469Z,2.51
2022-12-27T19:59:48.992Z,2.51
2022-12-27T20:02:18.337Z,2.51
2022-12-27T20:04:50.247Z,2.52
2022-12-27T20:07:26.271Z,2.55
2022-12-27T20:09:55.678Z,2.58
2022-12-27T20:12:25.468Z,2.59
2022-12-27T20:14:55.608Z,2.57
2022-12-27T20:17:24.167Z,2.56
2022-12-27T20:19:53.787Z,2.55
2022-12-27T20:22:22.124Z,2.53
2022-12-27T20:24:53.550Z,2.51
2022-12-27T20:27:23.495Z,2.50
2022-12-27T20:29:51.584Z,2.51
2022-12-27T20:32:23.631Z,2.52
2022-12-27T20:34:51.871Z,2.53
2022-12-27T20:37:24.594Z,2.53
2022-12-27T20:39:53.242Z,2.53
2022-12-27T20:42:24.073Z,2.54
2022-12-27T20:44:52.913Z,2.54
2022-12-27T20:47:27.571Z,2.55
2022-12-27T20:50:01.506Z,2.57
2022-12-27T20:52:31.315Z,2.60
2022-12-27T20:55:01.375Z,2.64
2022-12-27T20:57:32.932Z,2.66
2022-12-27T21:00:03.764Z,2.68
2022-12-27T21:02:32.287Z,2.69
2022-12-27T21:05:02.130Z,2.71
2022-12-27T21:07:32.765Z,2.73
2022-12-27T21:10:02.924Z,2.73
2022-12-27T21:12:32.645Z,2.72
2022-12-27T21:15:00.396Z,2.72
2022-12-27T21:17:31.063Z,2.74
2022-12-27T21:19:59.072Z,2.77
2022-12-27T21:22:27.760Z,2.80
2022-12-27T21:24:57.151Z,2.83
2022-12-27T21:27:24.928Z,2.82
2022-12-27T21:29:53.971Z,2.80
2022-12-27T21:32:21.541Z,2.80
2022-12-27T21:34:49.238Z,2.78
2022-12-27T21:37:17.653Z,2.76
2022-12-27T21:39:45.505Z,2.74
2022-12-27T21:42:14.215Z,2.72
2022-12-27T21:44:43.024Z,2.70
2022-12-27T21:47:12.846Z,2.67
2022-12-27T21:49:41.216Z,2.62
2022-12-27T21:52:09.038Z,2.57
2022-12-27T21:54:38.201Z,2.53
2022-12-27T21:57:06.683Z,2.47
2022-12-27T21:59:34.762Z,2.42
2022-12-27T22:02:02.769Z,2.38
2022-12-27T22:04:31.368Z,2.34
2022-12-27T22:07:00.739Z,2.30
2022-12-27T22:09:28.289Z,2.26
2022-12-27T22:11:56.372Z,2.21
2022-12-27T22:14:25.831Z,2.21
2022-12-27T22:16:57.244Z,2.21
2022-12-27T22:19:24.878Z,2.22
2022-12-27T22:21:52.923Z,2.22
2022-12-27T22:24:20.671Z,2.22
2022-12-27T22:26:49.806Z,2.23
2022-12-27T22:29:21.432Z,2.24
2022-12-27T22:31:50.427Z,2.24
2022-12-27T22:34:18.122Z,2.23
2022-12-27T22:36:45.737Z,2.22
2022-12-27T22:39:15.327Z,2.21
2022-12-27T22:41:43.072Z,2.20
2022-12-27T22:44:18.444Z,2.17
2022-12-27T22:49:34.707Z,2.14
2022-12-27T22:52:02.539Z,2.12
2022-12-27T22:55:05.719Z,2.11
2022-12-27T22:57:19.310Z,2.11
2022-12-27T22:59:48.919Z,2.06
2022-12-27T23:02:16.817Z,1.99
2022-12-27T23:04:44.780Z,1.90
2022-12-27T23:07:16.300Z,1.81
2022-12-27T23:09:45.544Z,1.74
2022-12-27T23:12:16.741Z,1.66
2022-12-27T23:14:44.465Z,1.60
2022-12-27T23:17:12.610Z,1.56
2022-12-27T23:19:40.248Z,1.53
2022-12-27T23:22:08.214Z,1.51
2022-12-27T23:24:35.851Z,1.50
2022-12-27T23:27:05.484Z,1.50
2022-12-27T23:29:35.971Z,1.50
2022-12-27T23:32:04.159Z,1.51
2022-12-27T23:34:34.016Z,1.50
2022-12-27T23:37:02.589Z,1.49
2022-12-27T23:39:32.597Z,1.48
2022-12-27T23:42:01.023Z,1.47
2022-12-27T23:44:33.014Z,1.44
2022-12-27T23:47:05.421Z,1.41
2022-12-27T23:49:34.203Z,1.41
2022-12-27T23:52:02.972Z,1.41
2022-12-27T23:54:31.605Z,1.43
2022-12-27T23:57:20.693Z,1.47
2022-12-27T23:59:49.029Z,1.52
